Time;durP1;ratioP1;P1;durP2;ratioP2;P2;SDS_P1;SDS_P2;PMS_P1;PMS_P2;Temp;Humidity;BMP_temperature;BMP_pressure;BME280_temperature;BME280_humidity;BME280_pressure;Samples;Min_cycle;Max_cycle;Signal;HPM_P1;HPM_P2
2021/07/10 00:01:10;;;;;;;9.08;6.87;;;;;;;19.83;71.88;100637.84;1721876;82;22192;-73
2021/07/10 00:03:39;;;;;;;9.10;6.92;;;;;;;19.78;71.97;100633.50;1713603;82;21424;-76
2021/07/10 00:06:06;;;;;;;11.43;7.15;;;;;;;19.74;72.12;100638.89;1725132;82;21041;-75
2021/07/10 00:08:33;;;;;;;9.40;7.03;;;;;;;19.69;72.34;100640.77;1724386;82;21132;-75
2021/07/10 00:11:02;;;;;;;11.90;7.12;;;;;;;19.67;72.45;100645.95;1708667;82;21012;-75
2021/07/10 00:13:31;;;;;;;11.75;6.70;;;;;;;19.64;72.44;100639.61;1713622;82;20934;-74
2021/07/10 00:15:57;;;;;;;8.20;6.60;;;;;;;19.61;72.49;100636.78;1706612;82;20987;-76
2021/07/10 00:18:24;;;;;;;11.45;7.25;;;;;;;19.56;72.55;100640.47;1733902;82;21304;-76
2021/07/10 00:20:52;;;;;;;12.40;7.08;;;;;;;19.51;72.61;100633.44;1712675;82;21667;-75
2021/07/10 00:23:19;;;;;;;12.30;7.05;;;;;;;19.47;72.74;100637.96;1708867;82;21002;-76
2021/07/10 00:25:46;;;;;;;7.40;6.50;;;;;;;19.43;72.73;100635.64;1706793;82;22641;-76
2021/07/10 00:28:13;;;;;;;11.73;6.83;;;;;;;19.40;72.93;100631.98;1706362;83;20957;-75
2021/07/10 00:30:39;;;;;;;8.10;6.97;;;;;;;19.38;73.01;100629.95;1706534;82;20958;-75
2021/07/10 00:33:05;;;;;;;8.95;7.20;;;;;;;19.37;73.09;100626.11;1718945;82;21132;-75
2021/07/10 00:35:32;;;;;;;8.55;7.03;;;;;;;19.34;73.19;100628.64;1713190;82;20954;-76
2021/07/10 00:37:58;;;;;;;7.70;6.65;;;;;;;19.33;73.25;100624.30;1710418;82;22497;-75
2021/07/10 00:40:25;;;;;;;7.60;6.25;;;;;;;19.32;73.25;100632.00;1713212;82;20969;-75
2021/07/10 00:42:51;;;;;;;9.68;6.78;;;;;;;19.30;73.30;100630.48;1736022;82;20953;-75
2021/07/10 00:45:18;;;;;;;10.03;6.92;;;;;;;19.26;73.41;100625.98;1714833;82;20953;-75
2021/07/10 00:47:45;;;;;;;10.93;7.12;;;;;;;19.21;73.46;100624.34;1735259;82;21025;-76
2021/07/10 00:50:17;;;;;;;9.85;6.67;;;;;;;19.18;73.49;100621.14;1727034;81;21844;-76
2021/07/10 00:52:43;;;;;;;8.73;7.37;;;;;;;19.13;73.57;100614.48;1706716;84;21016;-76
2021/07/10 00:55:11;;;;;;;8.78;7.10;;;;;;;19.08;73.71;100614.64;1707826;82;20961;-76
2021/07/10 00:57:41;;;;;;;9.00;7.15;;;;;;;19.03;73.86;100615.67;1695027;82;20997;-76
2021/07/10 01:00:11;;;;;;;8.50;6.65;;;;;;;19.01;73.96;100620.34;1706668;82;21005;-77
2021/07/10 01:02:40;;;;;;;10.72;7.55;;;;;;;19.00;73.98;100624.86;1706539;84;21883;-76
2021/07/10 01:05:08;;;;;;;8.88;7.42;;;;;;;18.99;74.01;100620.52;1712446;82;20950;-76
2021/07/10 01:07:37;;;;;;;12.28;7.90;;;;;;;18.97;74.04;100621.70;1725314;82;21016;-76
2021/07/10 01:10:04;;;;;;;9.50;7.33;;;;;;;18.94;74.07;100628.23;1713839;82;21044;-76
2021/07/10 01:12:32;;;;;;;8.95;7.25;;;;;;;18.91;74.11;100627.22;1712111;82;21076;-76
2021/07/10 01:14:59;;;;;;;8.03;7.22;;;;;;;18.88;74.23;100625.72;1698233;82;21806;-76
2021/07/10 01:17:27;;;;;;;10.40;7.85;;;;;;;18.86;74.29;100627.73;1712976;82;21484;-75
2021/07/10 01:20:00;;;;;;;9.53;7.95;;;;;;;18.83;74.43;100620.06;1708261;82;21524;-77
2021/07/10 01:22:27;;;;;;;8.85;7.42;;;;;;;18.82;74.74;100618.89;1709388;82;21008;-76
2021/07/10 01:24:55;;;;;;;8.25;7.20;;;;;;;18.81;74.87;100629.23;1711576;82;21012;-77
2021/07/10 01:27:21;;;;;;;9.35;7.40;;;;;;;18.81;75.00;100630.58;1719010;82;21807;-76
2021/07/10 01:29:48;;;;;;;11.10;8.10;;;;;;;18.81;75.06;100634.59;1740151;82;21115;-76
2021/07/10 01:32:18;;;;;;;9.90;7.80;;;;;;;18.81;75.07;100626.06;1731457;82;20949;-76
2021/07/10 01:34:46;;;;;;;9.05;7.97;;;;;;;18.79;75.07;100622.72;1750158;82;21021;-76
2021/07/10 01:37:16;;;;;;;10.13;7.58;;;;;;;18.79;75.03;100620.55;1740832;82;21071;-76
2021/07/10 01:39:43;;;;;;;12.95;7.58;;;;;;;18.78;74.97;100626.41;1719851;83;21848;-76
2021/07/10 01:42:10;;;;;;;11.97;7.25;;;;;;;18.75;74.98;100626.75;1729474;82;20988;-76
2021/07/10 01:44:39;;;;;;;12.23;7.62;;;;;;;18.72;75.04;100627.57;1743766;82;21059;-76
2021/07/10 01:47:05;;;;;;;9.23;7.53;;;;;;;18.69;75.12;100626.08;1740729;82;21482;-76
2021/07/10 01:49:32;;;;;;;9.63;7.95;;;;;;;18.69;75.20;100623.91;1743515;82;21361;-77
2021/07/10 01:51:59;;;;;;;9.73;7.87;;;;;;;18.67;75.21;100622.73;1736585;82;21866;-77
2021/07/10 01:54:26;;;;;;;11.10;8.18;;;;;;;18.65;75.32;100616.73;1720291;82;21001;-76
2021/07/10 01:56:53;;;;;;;9.80;7.62;;;;;;;18.63;75.38;100617.38;1720189;82;21040;-76
2021/07/10 01:59:19;;;;;;;14.30;7.72;;;;;;;18.60;75.41;100620.36;1713859;82;20997;-77
2021/07/10 02:02:08;;;;;;;9.10;7.50;;;;;;;18.57;75.51;100624.72;1731064;82;21064;-76
2021/07/10 02:04:50;;;;;;;8.68;7.37;;;;;;;18.54;75.55;100624.56;1774016;80;22440;-76
2021/07/10 02:07:17;;;;;;;9.60;7.53;;;;;;;18.55;75.65;100625.39;1767092;79;20932;-74
2021/07/10 02:09:44;;;;;;;10.75;7.92;;;;;;;18.50;75.83;100621.03;1760617;80;20994;-76
2021/07/10 02:12:12;;;;;;;10.70;8.03;;;;;;;18.50;75.92;100617.02;1779481;80;20976;-77
2021/07/10 02:14:39;;;;;;;10.60;8.03;;;;;;;18.49;75.93;100616.69;1780373;80;21560;-77
2021/07/10 02:17:06;;;;;;;9.93;7.95;;;;;;;18.48;76.00;100618.53;1757560;79;21565;-77
2021/07/10 02:19:34;;;;;;;9.08;8.18;;;;;;;18.47;76.08;100618.20;1775077;80;21636;-76
2021/07/10 02:22:02;;;;;;;9.83;7.55;;;;;;;18.48;76.27;100624.38;1774475;79;21003;-77
2021/07/10 02:24:28;;;;;;;9.25;7.97;;;;;;;18.48;76.49;100625.22;1781116;80;20979;-77
2021/07/10 02:26:54;;;;;;;13.25;8.13;;;;;;;18.47;76.62;100624.05;1775941;79;20944;-76
2021/07/10 02:29:21;;;;;;;10.85;7.97;;;;;;;18.46;76.75;100617.87;1783527;79;22508;-76
2021/07/10 02:31:48;;;;;;;11.48;7.72;;;;;;;18.47;76.92;100610.17;1776964;80;21340;-76
2021/07/10 02:34:15;;;;;;;8.53;7.70;;;;;;;18.47;77.01;100608.84;1780575;80;20940;-77
2021/07/10 02:36:41;;;;;;;10.18;7.78;;;;;;;18.47;77.10;100611.52;1795050;78;21471;-76
2021/07/10 02:39:08;;;;;;;8.93;7.87;;;;;;;18.49;77.15;100615.35;1812898;78;21447;-76
2021/07/10 02:41:35;;;;;;;10.43;8.23;;;;;;;18.50;77.25;100610.34;1808530;78;21813;-76
2021/07/10 02:44:01;;;;;;;10.10;8.13;;;;;;;18.53;77.27;100611.36;1792479;78;20964;-77
2021/07/10 02:46:29;;;;;;;13.22;8.53;;;;;;;18.55;77.30;100606.67;1793508;78;21048;-76
2021/07/10 02:48:58;;;;;;;10.68;7.97;;;;;;;18.56;77.36;100605.66;1800835;78;20960;-76
2021/07/10 02:51:26;;;;;;;9.00;8.08;;;;;;;18.55;77.42;100595.47;1812331;78;21066;-77
2021/07/10 02:53:55;;;;;;;10.48;8.48;;;;;;;18.56;77.57;100597.64;1797690;78;21835;-76
2021/07/10 02:56:23;;;;;;;9.80;8.23;;;;;;;18.55;77.60;100602.66;1808887;77;21039;-77
2021/07/10 02:58:52;;;;;;;10.88;8.13;;;;;;;18.56;77.63;100594.96;1821984;78;21396;-77
2021/07/10 03:01:19;;;;;;;9.03;8.05;;;;;;;18.56;77.73;100591.78;1814824;78;20932;-77
2021/07/10 03:03:46;;;;;;;8.95;7.95;;;;;;;18.57;77.77;100586.77;1826918;77;20987;-77
2021/07/10 03:06:12;;;;;;;10.05;8.63;;;;;;;18.58;77.83;100590.27;1830927;77;21790;-76
2021/07/10 03:08:39;;;;;;;10.10;8.45;;;;;;;18.60;77.87;100589.09;1834576;77;21003;-76
2021/07/10 03:11:06;;;;;;;9.13;7.90;;;;;;;18.65;78.04;100591.81;1835087;77;21473;-77
2021/07/10 03:13:33;;;;;;;11.35;8.28;;;;;;;18.67;78.19;100587.95;1836640;76;20975;-77
2021/07/10 03:16:00;;;;;;;14.80;8.18;;;;;;;18.72;78.26;100594.99;1855308;77;21484;-76
2021/07/10 03:18:26;;;;;;;10.40;8.50;;;;;;;18.79;78.33;100593.79;1815556;77;22438;-76
2021/07/10 03:20:53;;;;;;;12.28;9.05;;;;;;;18.90;78.56;100588.08;1823574;77;21431;-76
2021/07/10 03:23:19;;;;;;;10.50;8.60;;;;;;;19.01;78.64;100589.55;1859737;76;21480;-76
2021/07/10 03:25:47;;;;;;;10.48;9.05;;;;;;;19.11;78.77;100587.55;1832508;78;21054;-76
2021/07/10 03:28:14;;;;;;;11.73;8.10;;;;;;;19.20;78.89;100580.30;1832682;78;21034;-76
2021/07/10 03:30:41;;;;;;;9.18;8.23;;;;;;;19.24;78.95;100587.00;1812985;77;21792;-77
2021/07/10 03:33:07;;;;;;;9.93;8.70;;;;;;;19.26;78.98;100579.11;1855349;77;21756;-76
2021/07/10 03:35:35;;;;;;;9.73;8.73;;;;;;;19.29;79.02;100581.94;1843220;77;21426;-76
2021/07/10 03:38:02;;;;;;;13.40;8.73;;;;;;;19.33;79.06;100582.77;1827207;77;21367;-76
2021/07/10 03:40:29;;;;;;;14.47;8.93;;;;;;;19.41;79.15;100576.56;1854796;77;21007;-76
2021/07/10 03:42:55;;;;;;;12.98;9.55;;;;;;;19.53;79.20;100582.36;1866101;77;21805;-77
2021/07/10 03:45:23;;;;;;;12.73;10.15;;;;;;;19.62;79.34;100587.53;1839713;77;21149;-77
2021/07/10 03:47:50;;;;;;;12.40;10.03;;;;;;;19.76;79.54;100588.63;1801249;77;21030;-76
2021/07/10 03:50:16;;;;;;;11.30;8.45;;;;;;;19.90;79.58;100590.56;1850234;76;21378;-76
2021/07/10 03:52:43;;;;;;;14.73;8.13;;;;;;;20.07;79.38;100594.45;1831500;77;21424;-76
2021/07/10 03:55:11;;;;;;;10.58;7.80;;;;;;;20.20;79.13;100590.70;1857442;76;22630;-77
2021/07/10 03:57:39;;;;;;;12.28;7.22;;;;;;;20.32;78.75;100583.05;1832168;77;20929;-76
2021/07/10 04:00:09;;;;;;;9.10;7.37;;;;;;;20.43;78.22;100585.34;1834904;76;20956;-76
2021/07/10 04:02:36;;;;;;;8.65;6.75;;;;;;;20.54;77.76;100584.39;1858107;77;21161;-76
2021/07/10 04:05:04;;;;;;;9.38;6.28;;;;;;;20.65;77.22;100581.77;1810252;77;21004;-76
2021/07/10 04:07:33;;;;;;;9.80;6.85;;;;;;;20.76;76.65;100577.84;1809291;77;21031;-76
2021/07/10 04:10:01;;;;;;;10.90;6.25;;;;;;;20.87;76.17;100574.70;1817567;77;21008;-77
2021/07/10 04:12:27;;;;;;;12.25;7.55;;;;;;;20.97;75.71;100577.95;1840000;77;21350;-76
2021/07/10 04:15:00;;;;;;;10.75;6.53;;;;;;;21.08;75.33;100579.34;1837116;77;20937;-76
2021/07/10 04:17:24;;;;;;;9.50;6.50;;;;;;;21.19;74.80;100579.37;1846895;77;20901;-76
2021/07/10 04:19:53;;;;;;;13.00;6.58;;;;;;;21.27;74.23;100587.38;1812595;77;21463;-76
2021/07/10 04:22:19;;;;;;;9.40;6.78;;;;;;;21.33;73.80;100580.77;1843379;77;21468;-76
2021/07/10 04:24:46;;;;;;;10.18;6.75;;;;;;;21.41;73.71;100584.66;1824238;77;21399;-77
2021/07/10 04:27:12;;;;;;;9.28;6.60;;;;;;;21.51;73.49;100583.54;1820784;77;20940;-77
2021/07/10 04:29:39;;;;;;;10.23;6.58;;;;;;;21.59;72.96;100580.75;1844258;77;21008;-76
2021/07/10 04:32:07;;;;;;;7.97;6.10;;;;;;;21.68;72.64;100580.45;1840303;77;21400;-76
2021/07/10 04:34:33;;;;;;;11.45;6.08;;;;;;;21.77;72.22;100578.48;1831522;77;21479;-76
2021/07/10 04:37:00;;;;;;;9.33;5.90;;;;;;;21.82;71.85;100573.39;1829983;77;21528;-76
2021/07/10 04:39:26;;;;;;;10.53;6.42;;;;;;;21.88;71.33;100581.19;1833528;77;21613;-77
2021/07/10 04:41:53;;;;;;;7.87;6.35;;;;;;;21.94;71.00;100575.89;1852940;77;21422;-76
2021/07/10 04:44:19;;;;;;;8.78;6.40;;;;;;;22.02;71.01;100576.80;1847337;77;22436;-77
2021/07/10 04:46:46;;;;;;;7.30;6.10;;;;;;;22.10;70.78;100582.92;1819034;77;21431;-76
2021/07/10 04:49:14;;;;;;;8.40;6.30;;;;;;;22.18;70.51;100577.39;1845776;77;20975;-76
2021/07/10 04:51:41;;;;;;;10.98;5.85;;;;;;;22.28;70.30;100575.72;1842019;77;20968;-77
2021/07/10 04:54:08;;;;;;;13.30;6.55;;;;;;;22.38;70.22;100573.53;1813685;77;20944;-76
2021/07/10 04:56:34;;;;;;;7.75;5.83;;;;;;;22.46;69.40;100567.19;1795079;78;21761;-76
2021/07/10 04:59:00;;;;;;;11.38;6.25;;;;;;;22.53;68.86;100563.53;1806302;78;21039;-76
2021/07/10 05:01:27;;;;;;;10.95;6.25;;;;;;;22.63;68.47;100565.87;1821882;77;20979;-78
2021/07/10 05:03:54;;;;;;;9.28;6.00;;;;;;;22.73;67.94;100561.50;1856739;76;20945;-76
2021/07/10 05:06:20;;;;;;;8.05;5.00;;;;;;;22.85;67.19;100563.98;1856650;77;20989;-76
2021/07/10 05:08:48;;;;;;;11.45;5.33;;;;;;;22.94;65.97;100561.45;1842688;77;20990;-76
2021/07/10 05:11:17;;;;;;;6.87;5.35;;;;;;;23.04;65.02;100560.59;1821291;77;20924;-76
2021/07/10 05:13:45;;;;;;;7.78;4.70;;;;;;;23.14;64.08;100556.18;1787145;77;21433;-77
2021/07/10 05:16:11;;;;;;;5.65;4.92;;;;;;;23.25;62.92;100557.48;1832084;78;21625;-76
2021/07/10 05:18:38;;;;;;;8.03;4.75;;;;;;;23.37;62.11;100558.59;1817654;77;20947;-77
2021/07/10 05:21:05;;;;;;;7.72;4.45;;;;;;;23.47;61.31;100550.95;1807648;77;22449;-79
2021/07/10 05:23:32;;;;;;;8.75;4.30;;;;;;;23.56;60.63;100559.19;1819305;77;21459;-77
2021/07/10 05:25:58;;;;;;;7.67;4.55;;;;;;;23.66;59.37;100558.32;1816159;77;20940;-78
2021/07/10 05:28:25;;;;;;;6.33;4.40;;;;;;;23.76;58.96;100560.62;1813634;77;21427;-76
2021/07/10 05:30:53;;;;;;;6.75;4.67;;;;;;;23.85;58.80;100557.23;1834291;77;20964;-76
2021/07/10 05:33:19;;;;;;;7.90;4.40;;;;;;;23.93;58.55;100557.88;1837777;77;23087;-75
2021/07/10 05:35:46;;;;;;;7.28;4.42;;;;;;;24.03;57.82;100557.97;1823986;77;21414;-74
2021/07/10 05:38:13;;;;;;;6.62;4.58;;;;;;;24.12;57.56;100557.56;1814427;77;21028;-76
2021/07/10 05:40:41;;;;;;;8.00;4.25;;;;;;;24.21;56.86;100556.33;1829501;77;20981;-77
2021/07/10 05:43:07;;;;;;;8.08;4.22;;;;;;;24.31;56.54;100549.69;1807795;77;20971;-75
2021/07/10 05:45:35;;;;;;;8.60;4.47;;;;;;;24.37;55.89;100555.13;1800936;78;22639;-73
2021/07/10 05:48:01;;;;;;;9.08;4.42;;;;;;;24.44;55.54;100552.45;1863646;76;21471;-83
2021/07/10 05:50:28;;;;;;;6.85;4.03;;;;;;;24.50;55.30;100553.77;1830233;77;21043;-82
2021/07/10 05:52:56;;;;;;;9.08;4.20;;;;;;;24.59;54.58;100558.97;1832491;77;21043;-83
2021/07/10 05:55:22;;;;;;;6.17;4.20;;;;;;;24.63;54.47;100554.83;1856299;77;21023;-79
2021/07/10 05:57:49;;;;;;;6.50;3.80;;;;;;;24.69;54.51;100551.27;1833587;77;21759;-75
2021/07/10 06:00:17;;;;;;;5.37;4.08;;;;;;;24.76;53.48;100543.47;1857165;76;21439;-75
2021/07/10 06:02:43;;;;;;;10.15;4.42;;;;;;;24.84;53.21;100542.42;1819766;77;21418;-78
2021/07/10 06:05:10;;;;;;;7.22;4.62;;;;;;;24.91;53.07;100544.60;1804029;77;21758;-74
2021/07/10 06:07:39;;;;;;;9.08;4.03;;;;;;;24.97;53.34;100538.33;1798281;77;21027;-74
2021/07/10 06:10:09;;;;;;;6.33;4.08;;;;;;;25.05;53.12;100538.13;1807575;77;22479;-76
2021/07/10 06:12:38;;;;;;;8.90;4.33;;;;;;;25.14;52.71;100539.26;1809164;77;21141;-78
2021/07/10 06:15:08;;;;;;;7.40;4.05;;;;;;;25.24;52.99;100533.70;1793752;78;21273;-77
2021/07/10 06:17:36;;;;;;;8.38;4.03;;;;;;;25.32;51.91;100535.34;1808657;78;21033;-77
2021/07/10 06:20:05;;;;;;;11.78;4.37;;;;;;;25.40;52.00;100531.05;1804899;77;21023;-81
2021/07/10 06:22:32;;;;;;;9.18;4.87;;;;;;;25.49;52.15;100533.82;1802199;78;22478;-83
2021/07/10 06:24:59;;;;;;;6.03;3.98;;;;;;;25.59;52.28;100535.53;1819986;77;21011;-75
2021/07/10 06:27:26;;;;;;;6.75;4.28;;;;;;;25.71;51.82;100531.64;1817845;78;21474;-74
2021/07/10 06:29:52;;;;;;;7.15;4.15;;;;;;;25.79;51.93;100532.75;1800624;78;21550;-75
2021/07/10 06:32:18;;;;;;;7.20;4.67;;;;;;;25.86;51.90;100529.45;1804810;78;21506;-77
2021/07/10 06:34:45;;;;;;;8.13;5.08;;;;;;;25.96;51.31;100531.19;1813685;77;22779;-75
2021/07/10 06:37:12;;;;;;;8.33;4.83;;;;;;;26.06;50.91;100525.81;1786668;78;21075;-78
2021/07/10 06:39:39;;;;;;;10.82;4.90;;;;;;;26.13;51.35;100530.10;1814573;77;21090;-76
2021/07/10 06:42:06;;;;;;;14.78;4.70;;;;;;;26.22;51.39;100524.72;1801968;78;21121;-80
2021/07/10 06:44:33;;;;;;;7.37;4.67;;;;;;;26.32;50.33;100527.45;1796230;77;21125;-77
2021/07/10 06:46:59;;;;;;;8.50;5.03;;;;;;;26.41;50.01;100527.52;1793488;77;22483;-80
2021/07/10 06:49:25;;;;;;;8.48;5.45;;;;;;;26.44;49.01;100527.06;1819433;77;21510;-80
2021/07/10 06:51:54;;;;;;;5.08;4.58;;;;;;;26.43;49.55;100532.18;1824829;77;20992;-79
2021/07/10 06:54:21;;;;;;;5.35;4.22;;;;;;;26.45;49.77;100521.98;1771549;78;21035;-79
2021/07/10 06:56:47;;;;;;;9.85;4.50;;;;;;;26.52;49.01;100530.84;1809367;77;21019;-79
2021/07/10 06:59:13;;;;;;;5.75;4.72;;;;;;;26.60;48.66;100522.44;1785624;80;21862;-78
2021/07/10 07:01:40;;;;;;;6.40;4.33;;;;;;;26.65;47.63;100528.03;1827652;77;20992;-78
2021/07/10 07:04:07;;;;;;;12.65;3.98;;;;;;;26.72;48.36;100527.42;1828609;77;20964;-76
2021/07/10 07:06:33;;;;;;;7.47;4.22;;;;;;;26.81;47.56;100528.78;1832402;77;21007;-77
2021/07/10 07:09:01;;;;;;;7.92;4.72;;;;;;;26.94;47.87;100527.84;1850974;77;21074;-78
2021/07/10 07:11:28;;;;;;;7.75;4.30;;;;;;;27.07;48.08;100530.42;1836368;76;22767;-78
2021/07/10 07:13:56;;;;;;;7.53;4.53;;;;;;;27.18;46.78;100533.42;1826667;78;21479;-79
2021/07/10 07:16:22;;;;;;;5.85;3.72;;;;;;;27.21;46.15;100533.79;1863187;76;21001;-78
2021/07/10 07:18:49;;;;;;;7.22;4.17;;;;;;;27.24;45.46;100536.59;1838902;76;21014;-78
2021/07/10 07:21:16;;;;;;;5.00;4.05;;;;;;;27.27;45.90;100541.55;1848971;77;21461;-79
2021/07/10 07:23:43;;;;;;;5.85;3.95;;;;;;;27.35;45.92;100537.19;1845191;77;21806;-78
2021/07/10 07:26:10;;;;;;;5.03;4.17;;;;;;;27.43;44.37;100539.59;1856619;77;20982;-77
2021/07/10 07:28:37;;;;;;;10.63;4.12;;;;;;;27.45;44.82;100536.64;1801798;77;21022;-78
2021/07/10 07:31:05;;;;;;;5.55;4.08;;;;;;;27.54;44.86;100537.98;1822017;77;21494;-78
2021/07/10 07:33:33;;;;;;;6.95;4.10;;;;;;;27.64;44.91;100537.73;1831020;78;21451;-79
2021/07/10 07:35:59;;;;;;;12.20;4.08;;;;;;;27.74;44.89;100537.21;1830940;78;21762;-79
2021/07/10 07:38:25;;;;;;;8.23;4.20;;;;;;;27.83;44.99;100541.78;1830795;78;20999;-78
2021/07/10 07:40:52;;;;;;;8.65;4.40;;;;;;;27.91;44.72;100535.50;1830868;77;21042;-78
2021/07/10 07:43:19;;;;;;;7.20;4.10;;;;;;;28.01;44.80;100536.83;1824268;78;21007;-77
2021/07/10 07:45:47;;;;;;;8.08;4.53;;;;;;;28.11;44.60;100539.27;1812097;77;21604;-77
2021/07/10 07:48:13;;;;;;;7.05;4.30;;;;;;;28.23;44.42;100538.75;1806796;76;21799;-86
2021/07/10 07:50:41;;;;;;;8.18;4.30;;;;;;;28.34;43.92;100533.59;1807450;77;22180;-78
2021/07/10 07:53:09;;;;;;;6.30;4.28;;;;;;;28.42;43.63;100535.44;1828684;78;21485;-78
2021/07/10 07:55:36;;;;;;;6.42;4.35;;;;;;;28.50;43.62;100535.09;1818955;77;21058;-79
2021/07/10 07:58:04;;;;;;;6.10;4.37;;;;;;;28.59;42.89;100535.58;1831831;76;21046;-79
2021/07/10 08:00:31;;;;;;;5.72;4.50;;;;;;;28.62;42.83;100536.98;1825358;77;21799;-79
2021/07/10 08:02:57;;;;;;;13.03;4.90;;;;;;;28.67;43.38;100538.48;1827581;78;21027;-77
2021/07/10 08:05:24;;;;;;;4.92;4.12;;;;;;;28.75;43.21;100533.48;1826920;78;20987;-78
2021/07/10 08:07:50;;;;;;;5.00;4.20;;;;;;;28.83;42.27;100538.27;1835052;77;21113;-82
2021/07/10 08:10:17;;;;;;;6.40;4.35;;;;;;;28.85;42.08;100538.31;1850095;77;21030;-81
2021/07/10 08:12:45;;;;;;;6.70;4.75;;;;;;;28.84;42.38;100538.56;1831016;78;21753;-80
2021/07/10 08:15:14;;;;;;;9.05;4.33;;;;;;;28.88;43.19;100541.94;1833114;76;21007;-87
2021/07/10 08:17:43;;;;;;;6.85;4.17;;;;;;;28.96;41.90;100545.69;1803582;77;21066;-83
2021/07/10 08:20:11;;;;;;;8.05;4.55;;;;;;;29.02;42.11;100542.53;1801624;78;21301;-80
2021/07/10 08:22:39;;;;;;;13.53;4.87;;;;;;;29.11;41.75;100536.19;1798246;79;21023;-83
2021/07/10 08:25:08;;;;;;;9.18;4.72;;;;;;;29.19;42.35;100538.55;1809132;77;21796;-81
2021/07/10 08:27:34;;;;;;;5.90;4.70;;;;;;;29.26;41.46;100533.27;1831758;77;21048;-77
2021/07/10 08:30:05;;;;;;;7.62;5.83;;;;;;;29.30;40.71;100532.23;1805056;76;21022;-78
2021/07/10 08:32:31;;;;;;;10.13;4.80;;;;;;;29.29;41.73;100530.05;1804631;78;21439;-76
2021/07/10 08:34:58;;;;;;;8.45;4.58;;;;;;;29.36;41.74;100536.73;1831288;76;21045;-80
2021/07/10 08:37:24;;;;;;;6.87;4.08;;;;;;;29.46;42.07;100531.48;1837143;76;21763;-81
2021/07/10 08:39:51;;;;;;;6.20;4.37;;;;;;;29.57;41.66;100532.00;1847890;76;20988;-76
2021/07/10 08:42:17;;;;;;;9.08;5.65;;;;;;;29.67;40.81;100533.27;1832000;77;20952;-77
2021/07/10 08:44:44;;;;;;;6.00;5.20;;;;;;;29.78;41.27;100530.48;1822459;77;20992;-78
2021/07/10 08:47:13;;;;;;;10.32;4.40;;;;;;;29.89;40.53;100531.48;1830005;76;21026;-78
2021/07/10 08:49:39;;;;;;;8.28;4.30;;;;;;;29.97;40.35;100527.55;1804195;77;21860;-81
2021/07/10 08:52:06;;;;;;;7.35;4.30;;;;;;;29.93;39.46;100523.95;1844580;76;21360;-79
2021/07/10 08:54:33;;;;;;;10.55;4.47;;;;;;;29.88;39.99;100525.75;1803756;78;21462;-78
2021/07/10 08:56:59;;;;;;;5.67;4.00;;;;;;;29.97;41.13;100521.55;1830150;78;20942;-80
2021/07/10 08:59:26;;;;;;;8.10;4.28;;;;;;;30.12;39.25;100524.58;1827870;78;20952;-77
2021/07/10 09:01:54;;;;;;;19.67;6.12;;;;;;;30.20;39.32;100519.23;1832513;78;21799;-83
2021/07/10 09:04:22;;;;;;;8.43;4.22;;;;;;;30.29;39.50;100527.29;1818771;78;21086;-77
2021/07/10 09:06:50;;;;;;;8.80;4.65;;;;;;;30.29;39.50;100527.29;1787137;80;21419;-78
2021/07/10 09:09:17;;;;;;;7.62;4.45;;;;;;;30.34;39.07;100523.84;1796552;78;20968;-77
2021/07/10 09:12:06;;;;;;;7.20;4.40;;;;;;;30.39;39.89;100533.44;1815379;79;20943;-80
2021/07/10 09:14:33;;;;;;;5.03;4.15;;;;;;;30.67;38.37;100529.81;1785845;79;21029;-79
2021/07/10 09:17:17;;;;;;;5.42;4.30;;;;;;;30.67;38.37;100529.81;1805160;78;20851;-81
2021/07/10 09:19:44;;;;;;;5.50;4.15;;;;;;;30.63;38.30;100525.37;1809951;79;20982;-77
2021/07/10 09:22:11;;;;;;;5.65;4.55;;;;;;;30.63;38.30;100525.37;1811104;78;20999;-78
2021/07/10 09:24:39;;;;;;;7.05;4.17;;;;;;;30.57;37.78;100525.54;1819673;78;20956;-79
2021/07/10 09:27:08;;;;;;;8.43;4.65;;;;;;;30.57;37.78;100525.54;1803127;78;22155;-80
2021/07/10 09:29:40;;;;;;;8.95;4.20;;;;;;;30.57;38.93;100518.19;1819889;78;20955;-79
2021/07/10 09:32:11;;;;;;;7.28;4.25;;;;;;;30.68;39.35;100521.38;1808387;78;21105;-82
2021/07/10 09:34:42;;;;;;;17.37;14.75;;;;;;;30.86;39.17;100516.71;1746111;81;21018;-77
2021/07/10 09:37:12;;;;;;;6.92;5.85;;;;;;;30.91;38.02;100514.06;1740400;81;21057;-78
2021/07/10 09:39:43;;;;;;;7.65;4.58;;;;;;;30.98;38.92;100517.41;1718833;82;22228;-77
2021/07/10 09:42:13;;;;;;;5.60;4.15;;;;;;;31.11;38.59;100517.05;1737576;82;21024;-79
2021/07/10 09:44:47;;;;;;;5.83;3.83;;;;;;;31.22;39.15;100516.13;1727551;81;21056;-79
2021/07/10 09:47:19;;;;;;;6.12;4.10;;;;;;;31.41;38.49;100511.70;1748104;81;21116;-79
2021/07/10 09:49:45;;;;;;;5.65;4.20;;;;;;;31.56;37.69;100516.80;1756529;81;21044;-77
2021/07/10 09:52:15;;;;;;;6.72;4.37;;;;;;;31.68;37.64;100504.89;1735542;81;22340;-78
2021/07/10 09:54:45;;;;;;;7.00;4.50;;;;;;;31.77;37.67;100510.20;1726757;83;21492;-80
2021/07/10 09:57:27;;;;;;;9.25;4.17;;;;;;;31.89;37.26;100510.86;1734311;80;21076;-78
2021/07/10 10:00:01;;;;;;;6.62;3.92;;;;;;;32.04;37.02;100504.17;1727841;81;21468;-78
2021/07/10 10:02:33;;;;;;;7.67;4.28;;;;;;;32.11;36.22;100502.02;1728700;81;21033;-78
2021/07/10 10:05:05;;;;;;;4.70;4.20;;;;;;;32.07;36.12;100505.55;1733821;80;22356;-85
2021/07/10 10:07:48;;;;;;;10.23;4.33;;;;;;;32.05;36.14;100506.36;1774288;80;20930;-83
2021/07/10 10:10:31;;;;;;;;;;;;;;;32.12;35.97;100509.13;1784359;78;20979;-81
2021/07/10 10:13:11;;;;;;;5.50;4.00;;;;;;;32.29;35.97;100509.54;1772830;80;20168;-85
2021/07/10 10:15:49;;;;;;;5.90;4.33;;;;;;;32.41;36.39;100511.02;1768606;80;21469;-80
2021/07/10 10:18:22;;;;;;;5.97;4.50;;;;;;;32.63;36.93;100508.17;1784578;78;21036;-79
2021/07/10 10:20:50;;;;;;;7.97;4.50;;;;;;;32.77;35.81;100508.52;1734805;80;21504;-81
2021/07/10 10:23:17;;;;;;;6.83;4.55;;;;;;;32.88;34.52;100506.68;1799424;78;21044;-81
2021/07/10 10:25:44;;;;;;;6.97;4.72;;;;;;;32.93;33.10;100500.70;1785475;79;21111;-81
2021/07/10 10:28:18;;;;;;;8.13;4.70;;;;;;;32.90;34.58;100503.12;1780704;78;20999;-78
2021/07/10 10:30:44;;;;;;;6.25;4.50;;;;;;;32.90;33.21;100495.74;1784917;79;21840;-77
2021/07/10 10:33:10;;;;;;;8.35;4.70;;;;;;;32.80;34.03;100498.40;1787858;79;21019;-82
2021/07/10 10:35:37;;;;;;;7.20;4.20;;;;;;;32.91;34.57;100496.05;1736565;80;21380;-83
2021/07/10 10:38:03;;;;;;;5.80;4.92;;;;;;;33.10;35.09;100495.00;1794403;79;21060;-83
2021/07/10 10:40:31;;;;;;;7.70;5.12;;;;;;;33.32;34.18;100481.14;1752844;80;21092;-84
2021/07/10 10:43:01;;;;;;;9.35;4.60;;;;;;;33.48;33.71;100486.11;1743072;80;21044;-82
2021/07/10 10:45:33;;;;;;;8.83;5.22;;;;;;;33.49;32.66;100489.98;1770989;80;21001;-85
2021/07/10 10:48:02;;;;;;;8.83;5.15;;;;;;;33.40;32.65;100491.59;1792406;78;21040;-85
2021/07/10 10:50:34;;;;;;;11.60;5.08;;;;;;;33.40;32.62;100487.48;1779231;78;21064;-82
2021/07/10 10:53:01;;;;;;;10.77;6.03;;;;;;;33.49;32.40;100480.91;1773661;80;21048;-81
2021/07/10 10:55:33;;;;;;;10.43;6.67;;;;;;;33.63;32.56;100489.44;1790695;80;21840;-83
2021/07/10 10:58:20;;;;;;;6.42;5.72;;;;;;;33.77;32.61;100480.95;1796935;78;21523;-82
2021/07/10 11:00:49;;;;;;;6.25;5.25;;;;;;;33.92;30.89;100472.78;1791583;80;21057;-82
2021/07/10 11:03:20;;;;;;;10.50;4.72;;;;;;;33.99;31.83;100469.22;1743478;81;20986;-84
2021/07/10 11:05:52;;;;;;;7.67;5.50;;;;;;;34.13;32.26;100468.10;1755048;81;20990;-82
2021/07/10 11:08:30;;;;;;;6.72;5.28;;;;;;;34.33;31.23;100465.88;1733024;81;21505;-80
2021/07/10 11:11:05;;;;;;;6.72;5.20;;;;;;;34.42;30.56;100464.25;1708930;82;21095;-82
2021/07/10 11:13:40;;;;;;;6.03;5.40;;;;;;;34.55;30.49;100464.20;1730517;82;21577;-81
2021/07/10 11:16:18;;;;;;;6.65;5.28;;;;;;;34.58;30.95;100467.23;1742814;81;21055;-80
2021/07/10 11:19:01;;;;;;;6.45;5.45;;;;;;;34.71;29.21;100467.19;1769388;80;21556;-82
2021/07/10 11:21:39;;;;;;;6.47;5.40;;;;;;;34.79;28.82;100458.38;1773141;79;22514;-81
2021/07/10 11:24:21;;;;;;;7.08;5.60;;;;;;;34.90;28.81;100460.00;1761099;81;22133;-82
2021/07/10 11:27:00;;;;;;;7.17;5.45;;;;;;;34.98;28.72;100464.09;1755193;81;21067;-82